Time;durP1;ratioP1;P1;durP2;ratioP2;P2;SDS_P1;SDS_P2;PMS_P1;PMS_P2;Temp;Humidity;BMP_temperature;BMP_pressure;BME280_temperature;BME280_humidity;BME280_pressure;Samples;Min_cycle;Max_cycle;Signal;HPM_P1;HPM_P2
2021/12/06 00:00:44;;;;;;;5.28;1.25;;;19.50;85.30;;;;;;5037121;28;20024;-71
2021/12/06 00:03:15;;;;;;;7.10;1.58;;;19.50;85.30;;;;;;5030773;28;20061;-71
2021/12/06 00:05:41;;;;;;;9.45;1.52;;;19.50;85.20;;;;;;5039028;28;20112;-71
2021/12/06 00:08:08;;;;;;;3.22;1.23;;;19.50;85.50;;;;;;5043355;28;20071;-72
2021/12/06 00:10:35;;;;;;;7.82;1.25;;;19.50;85.60;;;;;;5031129;28;20060;-71
2021/12/06 00:13:02;;;;;;;8.88;2.15;;;19.50;85.80;;;;;;5032273;28;20029;-73
2021/12/06 00:15:32;;;;;;;5.18;2.65;;;19.50;85.80;;;;;;5040865;28;20018;-72
2021/12/06 00:18:00;;;;;;;3.88;1.50;;;19.50;86.00;;;;;;5037049;28;20022;-70
2021/12/06 00:20:27;;;;;;;3.30;1.15;;;19.50;85.70;;;;;;5040971;28;20099;-74
2021/12/06 00:22:54;;;;;;;6.38;1.65;;;19.50;86.00;;;;;;5033583;28;20541;-72
2021/12/06 00:25:21;;;;;;;3.40;1.00;;;19.50;86.70;;;;;;5037939;28;20037;-70
2021/12/06 00:27:48;;;;;;;6.00;0.88;;;19.50;87.00;;;;;;5037378;28;20408;-74
2021/12/06 00:30:16;;;;;;;3.22;1.27;;;19.50;87.40;;;;;;5037688;28;20033;-71
2021/12/06 00:32:44;;;;;;;2.45;0.88;;;19.50;87.80;;;;;;5033767;28;20079;-70
2021/12/06 00:35:18;;;;;;;2.33;1.05;;;19.40;87.90;;;;;;5044084;28;20022;-72
2021/12/06 00:37:54;;;;;;;4.05;1.27;;;19.40;88.10;;;;;;5033885;28;20032;-71
2021/12/06 00:40:22;;;;;;;2.80;0.60;;;19.40;88.40;;;;;;5041836;28;20529;-70
2021/12/06 00:42:48;;;;;;;1.60;0.60;;;19.40;88.60;;;;;;5036268;28;20072;-71
2021/12/06 00:45:15;;;;;;;2.58;0.90;;;19.40;88.70;;;;;;5043614;28;20368;-71
2021/12/06 00:47:42;;;;;;;2.42;0.80;;;19.30;88.50;;;;;;5042506;28;20080;-71
2021/12/06 00:50:09;;;;;;;1.48;0.52;;;19.30;88.40;;;;;;5038767;28;20048;-71
2021/12/06 00:52:36;;;;;;;3.67;1.20;;;19.30;88.10;;;;;;5034088;28;20021;-70
2021/12/06 00:55:05;;;;;;;2.05;0.70;;;19.30;88.00;;;;;;5040243;28;20044;-71
2021/12/06 00:57:31;;;;;;;1.70;0.82;;;19.30;87.90;;;;;;5044997;28;20115;-70
2021/12/06 00:59:58;;;;;;;2.38;0.88;;;19.30;87.70;;;;;;5041352;28;20022;-71
2021/12/06 01:02:24;;;;;;;1.48;0.70;;;19.30;87.50;;;;;;5042568;28;20105;-71
2021/12/06 01:04:51;;;;;;;5.47;1.40;;;19.30;87.30;;;;;;5039387;28;20013;-71
2021/12/06 01:07:18;;;;;;;4.97;1.10;;;19.20;86.80;;;;;;5041322;28;20025;-71
2021/12/06 01:09:44;;;;;;;6.03;1.65;;;19.20;86.90;;;;;;5040138;28;20114;-71
2021/12/06 01:12:11;;;;;;;3.92;1.38;;;19.20;86.80;;;;;;5037617;28;20083;-71
2021/12/06 01:14:38;;;;;;;3.65;1.40;;;19.20;86.90;;;;;;5036634;28;20443;-71
2021/12/06 01:17:07;;;;;;;4.80;1.35;;;19.20;86.90;;;;;;5042382;28;20032;-73
2021/12/06 01:19:36;;;;;;;2.63;1.25;;;19.20;86.80;;;;;;5038689;28;20076;-71
2021/12/06 01:22:16;;;;;;;2.13;1.23;;;19.20;86.80;;;;;;5039012;28;20045;-71
2021/12/06 01:24:52;;;;;;;3.17;1.42;;;19.20;86.90;;;;;;5032725;28;20108;-71
2021/12/06 01:32:46;;;;;;;6.18;1.40;;;19.10;86.70;;;;;;5038473;28;20035;-71
2021/12/06 01:40:34;;;;;;;6.10;2.25;;;19.10;86.90;;;;;;5039212;28;20041;-72
2021/12/06 01:43:05;;;;;;;5.97;1.85;;;19.10;87.00;;;;;;5033600;28;20116;-71
2021/12/06 01:45:31;;;;;;;3.42;1.40;;;19.10;87.20;;;;;;5037957;28;20082;-73
2021/12/06 01:47:58;;;;;;;4.72;0.90;;;19.10;87.30;;;;;;5038263;28;20021;-72
2021/12/06 01:50:30;;;;;;;4.53;0.88;;;19.10;87.30;;;;;;5036268;28;20075;-71
2021/12/06 01:53:00;;;;;;;2.15;1.00;;;19.10;87.40;;;;;;5035405;28;20036;-71
2021/12/06 01:55:30;;;;;;;3.38;0.95;;;19.10;87.30;;;;;;5038590;28;20029;-71
2021/12/06 01:57:59;;;;;;;3.38;0.88;;;19.10;87.30;;;;;;5041107;28;20021;-71
2021/12/06 02:00:45;;;;;;;4.00;1.00;;;19.10;87.10;;;;;;5037727;28;20103;-71
2021/12/06 02:03:12;;;;;;;3.90;0.85;;;19.10;87.30;;;;;;5035504;28;20028;-70
2021/12/06 02:05:40;;;;;;;3.13;1.02;;;19.10;87.20;;;;;;5038115;28;20108;-71
2021/12/06 02:08:07;;;;;;;3.85;1.17;;;19.10;87.40;;;;;;5040468;28;20625;-71
2021/12/06 02:10:36;;;;;;;4.65;0.90;;;19.10;87.40;;;;;;5040024;28;20033;-71
2021/12/06 02:13:04;;;;;;;5.30;1.30;;;19.00;87.30;;;;;;5031828;28;20099;-70
2021/12/06 02:18:08;;;;;;;2.83;1.30;;;19.00;87.50;;;;;;5039445;28;20029;-70
2021/12/06 02:20:42;;;;;;;5.97;1.13;;;19.10;87.70;;;;;;5043709;28;20114;-70
2021/12/06 02:23:09;;;;;;;5.85;1.65;;;19.00;87.70;;;;;;5035501;28;20025;-71
2021/12/06 02:25:36;;;;;;;2.55;0.70;;;19.00;87.80;;;;;;5035952;28;20127;-71
2021/12/06 02:28:03;;;;;;;5.47;1.05;;;19.00;87.90;;;;;;5037374;28;20053;-71
2021/12/06 02:30:30;;;;;;;3.00;0.88;;;19.00;88.50;;;;;;5036559;28;20029;-72
2021/12/06 02:32:57;;;;;;;5.90;1.48;;;19.00;87.90;;;;;;5038513;28;20009;-70
2021/12/06 02:35:24;;;;;;;2.38;0.75;;;19.00;87.80;;;;;;5040053;28;20017;-71
2021/12/06 02:37:53;;;;;;;3.50;0.88;;;19.00;87.90;;;;;;5035135;28;20492;-72
2021/12/06 02:40:27;;;;;;;3.40;1.40;;;19.00;87.80;;;;;;5040828;28;20096;-71
2021/12/06 02:42:55;;;;;;;3.10;0.90;;;19.00;87.90;;;;;;5037250;28;20013;-71
2021/12/06 02:45:25;;;;;;;2.00;0.77;;;19.00;88.10;;;;;;5038603;28;20060;-72
2021/12/06 02:47:53;;;;;;;8.50;1.48;;;19.00;87.80;;;;;;5042005;28;20013;-71
2021/12/06 02:50:27;;;;;;;7.28;1.42;;;19.00;87.40;;;;;;5041477;28;20036;-71
2021/12/06 02:52:55;;;;;;;4.57;1.35;;;19.00;87.60;;;;;;5040401;28;20006;-70
2021/12/06 02:55:35;;;;;;;7.68;2.75;;;19.00;87.60;;;;;;5030730;28;20049;-72
2021/12/06 02:58:32;;;;;;;4.72;1.10;;;19.00;88.00;;;;;;5042048;28;20082;-72
2021/12/06 03:01:02;;;;;;;11.52;1.85;;;18.90;88.00;;;;;;5033849;28;20026;-71
2021/12/06 03:03:29;;;;;;;3.88;1.20;;;19.00;88.10;;;;;;5033847;28;20021;-71
2021/12/06 03:05:56;;;;;;;4.82;1.17;;;19.00;88.50;;;;;;5034112;28;20906;-73
2021/12/06 03:08:39;;;;;;;5.03;0.93;;;19.00;88.40;;;;;;5034097;28;20021;-71
2021/12/06 03:11:17;;;;;;;1.95;0.68;;;19.00;88.30;;;;;;5039706;28;20035;-73
2021/12/06 03:13:43;;;;;;;2.58;0.90;;;18.90;88.00;;;;;;5033732;28;20028;-71
2021/12/06 03:16:10;;;;;;;3.53;0.65;;;18.90;88.20;;;;;;5041819;28;20118;-71
2021/12/06 03:18:37;;;;;;;3.30;0.88;;;18.90;88.40;;;;;;5037308;28;20032;-72
2021/12/06 03:21:04;;;;;;;13.18;1.10;;;18.90;88.40;;;;;;5040209;28;20024;-72
2021/12/06 03:23:31;;;;;;;4.88;0.80;;;18.90;88.40;;;;;;5034387;28;20086;-72
2021/12/06 03:25:58;;;;;;;3.00;1.00;;;18.90;88.40;;;;;;5032806;28;20029;-72
2021/12/06 03:28:24;;;;;;;3.58;0.75;;;18.90;88.30;;;;;;5039116;28;20022;-75
2021/12/06 03:30:51;;;;;;;16.52;10.93;;;18.90;88.10;;;;;;5038614;28;20045;-75
2021/12/06 03:33:17;;;;;;;17.15;10.05;;;18.90;88.00;;;;;;5037755;28;20547;-75
2021/12/06 03:35:44;;;;;;;18.33;6.97;;;18.90;88.00;;;;;;5033078;28;20058;-75
2021/12/06 03:38:10;;;;;;;10.98;2.63;;;18.90;88.00;;;;;;5040215;28;20033;-75
2021/12/06 03:40:37;;;;;;;10.23;1.63;;;18.90;88.40;;;;;;5038040;28;20074;-75
2021/12/06 03:43:03;;;;;;;5.97;1.10;;;18.90;88.70;;;;;;5032006;28;20032;-75
2021/12/06 03:45:30;;;;;;;3.60;0.85;;;18.90;88.80;;;;;;5037792;28;20036;-75
2021/12/06 03:47:56;;;;;;;2.53;1.50;;;18.90;88.70;;;;;;5040972;28;20032;-75
2021/12/06 03:50:23;;;;;;;3.92;2.22;;;18.90;88.70;;;;;;5037811;28;20025;-75
2021/12/06 03:52:50;;;;;;;4.05;1.27;;;18.90;88.70;;;;;;5037865;28;20110;-74
2021/12/06 03:55:16;;;;;;;5.50;1.42;;;18.80;88.50;;;;;;5032549;28;20028;-76
2021/12/06 03:57:43;;;;;;;8.05;1.42;;;18.80;88.50;;;;;;5039249;28;20018;-73
2021/12/06 04:00:10;;;;;;;8.20;1.20;;;18.80;88.30;;;;;;5036165;28;20484;-76
2021/12/06 04:02:37;;;;;;;5.72;1.23;;;18.80;88.10;;;;;;5035355;28;20036;-76
2021/12/06 04:05:04;;;;;;;8.43;1.50;;;18.80;88.00;;;;;;5035195;28;20013;-76
2021/12/06 04:07:31;;;;;;;7.43;1.48;;;18.70;88.30;;;;;;5037632;28;20037;-79
2021/12/06 04:09:57;;;;;;;8.77;3.42;;;18.80;88.50;;;;;;5033983;28;20018;-79
2021/12/06 04:12:24;;;;;;;23.73;18.75;;;18.80;88.50;;;;;;5030678;28;20021;-74
2021/12/06 04:14:51;;;;;;;36.72;26.80;;;18.80;88.20;;;;;;5037623;28;20104;-76
2021/12/06 04:17:18;;;;;;;12.32;6.20;;;18.80;88.30;;;;;;5039305;28;20417;-72
2021/12/06 04:19:45;;;;;;;10.57;1.95;;;18.90;88.30;;;;;;5036493;28;20376;-74
2021/12/06 04:22:13;;;;;;;4.22;1.40;;;18.90;88.10;;;;;;5035223;28;20017;-72
2021/12/06 04:24:39;;;;;;;6.60;1.50;;;18.90;88.00;;;;;;5034798;28;20072;-72
2021/12/06 04:27:13;;;;;;;5.55;1.35;;;18.90;87.80;;;;;;5036822;28;20479;-75
2021/12/06 04:29:45;;;;;;;7.30;1.52;;;18.90;87.50;;;;;;5038850;28;20377;-74
2021/12/06 04:32:12;;;;;;;5.20;1.70;;;19.00;87.30;;;;;;5040361;28;20025;-75
2021/12/06 04:34:39;;;;;;;4.10;2.03;;;18.90;87.10;;;;;;5039187;28;20017;-73
2021/12/06 04:37:06;;;;;;;4.55;2.40;;;19.00;87.20;;;;;;5035261;28;20416;-75
2021/12/06 04:39:34;;;;;;;6.88;3.72;;;19.00;86.80;;;;;;5033590;28;20022;-73
2021/12/06 04:42:01;;;;;;;4.45;1.83;;;19.00;86.30;;;;;;5039399;28;20560;-74
2021/12/06 04:44:28;;;;;;;6.32;1.92;;;19.00;86.00;;;;;;5032754;28;20031;-76
2021/12/06 04:46:54;;;;;;;7.75;1.83;;;19.00;85.80;;;;;;5038755;28;20104;-75
2021/12/06 04:49:24;;;;;;;6.07;2.38;;;19.00;85.70;;;;;;5039281;28;20025;-74
2021/12/06 04:51:53;;;;;;;10.32;1.52;;;18.90;85.60;;;;;;5039904;28;20496;-76
2021/12/06 04:54:27;;;;;;;4.60;1.20;;;19.00;85.70;;;;;;5033761;28;20033;-76
2021/12/06 04:57:03;;;;;;;6.85;1.33;;;18.90;85.60;;;;;;5036783;28;20022;-76
2021/12/06 04:59:37;;;;;;;7.82;1.27;;;19.00;85.60;;;;;;5037567;28;20013;-77
2021/12/06 05:02:11;;;;;;;3.97;1.30;;;19.00;85.70;;;;;;5038828;28;20014;-77
2021/12/06 05:04:40;;;;;;;6.53;1.30;;;19.00;85.60;;;;;;5032710;28;20025;-76
2021/12/06 05:07:17;;;;;;;3.90;1.20;;;19.00;85.70;;;;;;5042014;28;20017;-77
2021/12/06 05:09:45;;;;;;;4.35;1.42;;;19.00;85.70;;;;;;5030820;28;20029;-76
2021/12/06 05:12:15;;;;;;;5.00;1.23;;;19.00;85.90;;;;;;5035887;28;20028;-76
2021/12/06 05:14:41;;;;;;;7.25;1.10;;;19.00;85.70;;;;;;5039735;28;20009;-76
2021/12/06 05:17:08;;;;;;;7.25;1.95;;;19.00;85.70;;;;;;5038318;28;20067;-76
2021/12/06 05:19:35;;;;;;;3.63;1.20;;;19.00;85.70;;;;;;5038058;28;20025;-77
2021/12/06 05:22:02;;;;;;;5.80;2.08;;;19.00;85.80;;;;;;5039975;28;20025;-76
2021/12/06 05:24:29;;;;;;;5.75;1.77;;;19.00;85.70;;;;;;5042494;28;20411;-76
2021/12/06 05:26:56;;;;;;;7.43;1.20;;;19.00;85.60;;;;;;5038917;28;20076;-76
2021/12/06 05:29:27;;;;;;;5.90;1.27;;;19.00;85.60;;;;;;5044782;28;20071;-77
2021/12/06 05:31:56;;;;;;;5.68;1.38;;;19.00;85.50;;;;;;5034233;28;20064;-75
2021/12/06 05:34:31;;;;;;;6.85;1.48;;;19.10;85.60;;;;;;5043236;28;20048;-76
2021/12/06 05:36:58;;;;;;;6.47;1.80;;;19.10;85.30;;;;;;5041787;28;20013;-76
2021/12/06 05:39:30;;;;;;;4.75;1.30;;;19.10;85.30;;;;;;5039491;28;20668;-76
2021/12/06 05:42:03;;;;;;;7.05;1.50;;;19.10;85.20;;;;;;5045690;28;20391;-75
2021/12/06 05:44:30;;;;;;;6.55;1.23;;;19.10;84.90;;;;;;5041661;28;20075;-77
2021/12/06 05:46:58;;;;;;;8.60;1.80;;;19.10;84.60;;;;;;5039073;28;20045;-76
2021/12/06 05:49:25;;;;;;;3.72;1.17;;;19.10;84.40;;;;;;5040386;28;20065;-76
2021/12/06 05:51:52;;;;;;;4.75;1.45;;;19.10;84.30;;;;;;5041115;28;20029;-75
2021/12/06 05:54:19;;;;;;;3.60;1.02;;;19.20;84.00;;;;;;5037004;28;20100;-76
2021/12/06 05:56:46;;;;;;;5.72;1.60;;;19.20;83.70;;;;;;5039755;28;20506;-76
2021/12/06 05:59:14;;;;;;;6.05;2.28;;;19.20;82.80;;;;;;5044099;28;20029;-76
2021/12/06 06:01:40;;;;;;;6.07;1.13;;;19.20;82.60;;;;;;5038600;28;20550;-76
2021/12/06 06:04:08;;;;;;;12.05;2.63;;;19.30;82.70;;;;;;5039361;28;20025;-76
2021/12/06 06:06:37;;;;;;;11.82;1.60;;;19.30;82.50;;;;;;5037326;28;20018;-75
2021/12/06 06:09:06;;;;;;;7.68;1.38;;;19.30;81.60;;;;;;5040037;28;20420;-76
2021/12/06 06:11:35;;;;;;;7.10;1.70;;;19.30;81.40;;;;;;5040040;28;20057;-75
2021/12/06 06:14:05;;;;;;;4.43;1.60;;;19.30;81.20;;;;;;5039315;28;20017;-76
2021/12/06 06:16:36;;;;;;;10.75;1.30;;;19.40;81.10;;;;;;5043084;28;20024;-76
2021/12/06 06:19:05;;;;;;;22.83;3.00;;;19.40;81.10;;;;;;5040208;28;20017;-76
2021/12/06 06:21:31;;;;;;;15.90;1.83;;;19.50;81.30;;;;;;5035322;28;20405;-76
2021/12/06 06:23:58;;;;;;;17.75;3.53;;;19.60;81.40;;;;;;5036301;28;20807;-77
2021/12/06 06:26:24;;;;;;;11.90;2.85;;;19.70;81.10;;;;;;5041594;28;20048;-76
2021/12/06 06:28:51;;;;;;;10.73;2.08;;;19.70;80.40;;;;;;5043440;28;20029;-77
2021/12/06 06:31:17;;;;;;;7.43;1.42;;;19.80;79.70;;;;;;5039589;28;20040;-77
2021/12/06 06:33:44;;;;;;;4.25;1.42;;;19.80;79.10;;;;;;5042201;28;20345;-76
2021/12/06 06:36:11;;;;;;;6.80;1.60;;;19.80;78.70;;;;;;5040617;28;20642;-77
2021/12/06 06:38:39;;;;;;;8.18;2.03;;;19.80;78.60;;;;;;5041264;28;20490;-76
2021/12/06 06:41:05;;;;;;;10.18;2.05;;;19.80;78.30;;;;;;5038068;28;20024;-77
2021/12/06 06:43:32;;;;;;;7.13;1.52;;;19.80;78.60;;;;;;5041993;28;20543;-75
2021/12/06 06:45:59;;;;;;;4.53;1.15;;;19.80;78.40;;;;;;5038768;28;20019;-77
2021/12/06 06:48:25;;;;;;;10.00;2.28;;;19.90;77.90;;;;;;5036677;28;20024;-77
2021/12/06 06:50:52;;;;;;;4.93;1.23;;;20.00;77.50;;;;;;5037703;28;20417;-77
2021/12/06 06:53:18;;;;;;;6.78;2.08;;;20.00;76.40;;;;;;5039368;28;20049;-77
2021/12/06 06:55:45;;;;;;;5.47;1.58;;;20.10;75.60;;;;;;5044725;28;20532;-77
2021/12/06 06:58:11;;;;;;;5.63;1.45;;;20.20;75.00;;;;;;5035285;28;20040;-77
2021/12/06 07:00:39;;;;;;;17.90;2.42;;;20.20;74.50;;;;;;5039359;28;20056;-77
2021/12/06 07:03:07;;;;;;;7.70;1.42;;;20.20;74.00;;;;;;5035455;28;20044;-77
2021/12/06 07:05:35;;;;;;;3.05;1.95;;;20.20;73.90;;;;;;5035657;28;20491;-76
2021/12/06 07:08:01;;;;;;;6.75;1.50;;;20.30;73.90;;;;;;5040502;28;20022;-76
2021/12/06 07:10:28;;;;;;;3.28;1.05;;;20.30;73.50;;;;;;5036973;28;20036;-76
2021/12/06 07:12:56;;;;;;;3.58;1.10;;;20.30;73.60;;;;;;5040976;28;20108;-77
2021/12/06 07:15:25;;;;;;;4.07;1.60;;;20.40;73.80;;;;;;5037826;28;20071;-77
2021/12/06 07:17:52;;;;;;;5.60;1.30;;;20.40;74.00;;;;;;5038507;28;20033;-77
2021/12/06 07:20:20;;;;;;;2.72;0.90;;;20.40;73.90;;;;;;5037302;28;20060;-76
2021/12/06 07:22:49;;;;;;;6.63;1.30;;;20.40;73.00;;;;;;5038208;28;20031;-76
2021/12/06 07:25:17;;;;;;;9.57;1.42;;;20.40;73.10;;;;;;5035299;28;20108;-76
2021/12/06 07:27:43;;;;;;;7.55;1.20;;;20.40;72.30;;;;;;5037275;28;20025;-76
2021/12/06 07:30:11;;;;;;;5.32;1.35;;;20.50;72.20;;;;;;5039515;28;20120;-75
2021/12/06 07:32:38;;;;;;;11.07;2.03;;;20.50;71.60;;;;;;5034147;28;20021;-76
2021/12/06 07:35:06;;;;;;;10.80;1.80;;;20.50;71.40;;;;;;5036210;28;20052;-76
2021/12/06 07:37:32;;;;;;;9.25;1.70;;;20.50;71.30;;;;;;5039718;28;20021;-74
2021/12/06 07:39:59;;;;;;;3.58;1.30;;;20.60;71.20;;;;;;5038718;28;20049;-75
2021/12/06 07:42:25;;;;;;;8.75;1.42;;;20.60;71.20;;;;;;5038278;28;20140;-77
2021/12/06 07:44:52;;;;;;;4.07;1.38;;;20.70;70.90;;;;;;5035142;28;20076;-76
2021/12/06 07:47:19;;;;;;;5.40;0.88;;;20.80;70.60;;;;;;5039367;28;20028;-76
2021/12/06 07:49:45;;;;;;;2.47;1.02;;;20.80;70.00;;;;;;5035836;28;20076;-76
2021/12/06 07:52:13;;;;;;;3.63;0.90;;;20.80;70.20;;;;;;5043446;28;20033;-75
2021/12/06 07:54:40;;;;;;;2.25;1.25;;;20.80;70.40;;;;;;5040803;28;20043;-76
2021/12/06 07:57:08;;;;;;;2.90;0.82;;;20.80;70.00;;;;;;5038872;28;20024;-77
2021/12/06 07:59:35;;;;;;;4.85;1.15;;;20.90;69.00;;;;;;5038448;28;20013;-76
2021/12/06 08:02:03;;;;;;;2.03;0.80;;;20.90;68.50;;;;;;5042415;28;20101;-76
2021/12/06 08:04:30;;;;;;;5.25;1.52;;;21.00;67.90;;;;;;5038641;28;20021;-75
2021/12/06 08:06:57;;;;;;;2.80;1.17;;;21.10;67.80;;;;;;5040817;28;20021;-76
2021/12/06 08:09:23;;;;;;;4.28;1.40;;;21.20;67.70;;;;;;5038804;28;20452;-76
2021/12/06 08:11:50;;;;;;;4.18;1.00;;;21.20;67.50;;;;;;5039246;28;20116;-75
2021/12/06 08:14:16;;;;;;;3.60;1.67;;;21.30;66.90;;;;;;5040668;28;20104;-76
2021/12/06 08:16:44;;;;;;;2.78;1.42;;;21.30;66.90;;;;;;5040397;28;20021;-76
2021/12/06 08:19:11;;;;;;;6.60;1.23;;;21.40;66.40;;;;;;5036388;28;20044;-76
2021/12/06 08:21:38;;;;;;;5.95;1.50;;;21.40;66.30;;;;;;5035892;28;20043;-75
2021/12/06 08:24:06;;;;;;;4.30;1.10;;;21.50;66.00;;;;;;5035805;28;20025;-75
2021/12/06 08:26:39;;;;;;;7.20;0.80;;;21.50;66.00;;;;;;5033990;28;20038;-75
2021/12/06 08:29:07;;;;;;;3.55;0.90;;;21.60;65.80;;;;;;5039362;28;20030;-76
2021/12/06 08:31:37;;;;;;;3.92;0.75;;;21.60;66.10;;;;;;5036045;28;20048;-75
2021/12/06 08:34:04;;;;;;;4.03;0.85;;;21.70;65.90;;;;;;5043488;28;20021;-76
2021/12/06 08:36:31;;;;;;;6.05;1.02;;;21.80;65.30;;;;;;5036682;28;20021;-75
2021/12/06 08:38:58;;;;;;;3.45;0.98;;;21.90;64.80;;;;;;5042615;28;20025;-75
2021/12/06 08:41:28;;;;;;;4.40;1.75;;;21.90;64.60;;;;;;5037300;28;20023;-74
2021/12/06 08:43:57;;;;;;;3.35;1.15;;;22.00;64.50;;;;;;5034131;28;20013;-75
2021/12/06 08:46:30;;;;;;;3.13;0.70;;;22.10;64.10;;;;;;5034535;28;20391;-77
2021/12/06 08:48:57;;;;;;;1.50;1.02;;;22.20;63.90;;;;;;5037876;28;20515;-75
2021/12/06 08:51:26;;;;;;;3.83;0.50;;;22.40;63.50;;;;;;5037806;28;20059;-76
2021/12/06 08:53:55;;;;;;;4.22;0.80;;;22.50;63.20;;;;;;5036704;28;20379;-76
2021/12/06 08:56:22;;;;;;;1.10;0.57;;;22.60;62.00;;;;;;5043112;28;20313;-75
2021/12/06 08:58:49;;;;;;;3.00;0.95;;;22.70;61.20;;;;;;5041201;28;20067;-76
2021/12/06 09:01:16;;;;;;;3.38;0.88;;;22.80;60.90;;;;;;5041337;28;20067;-76
2021/12/06 09:03:42;;;;;;;0.55;0.40;;;22.90;60.40;;;;;;5046703;28;20082;-76
2021/12/06 09:06:11;;;;;;;1.45;0.80;;;22.90;60.10;;;;;;5045084;28;20104;-76
2021/12/06 09:08:39;;;;;;;2.35;0.57;;;22.90;60.00;;;;;;5041468;28;20017;-76
2021/12/06 09:11:06;;;;;;;2.40;0.70;;;23.00;60.10;;;;;;5041016;28;20025;-76
2021/12/06 09:13:35;;;;;;;4.93;0.73;;;23.00;59.60;;;;;;5043068;28;20415;-76
2021/12/06 09:16:04;;;;;;;1.00;0.70;;;23.10;59.50;;;;;;5040113;28;20372;-76
2021/12/06 09:18:34;;;;;;;3.03;0.82;;;23.00;59.40;;;;;;5039788;28;20101;-76
2021/12/06 09:21:03;;;;;;;3.13;0.70;;;23.10;59.60;;;;;;5041137;28;20066;-76
2021/12/06 09:23:30;;;;;;;0.57;0.40;;;23.10;59.00;;;;;;5044801;28;20108;-76
2021/12/06 09:25:56;;;;;;;1.17;0.52;;;23.10;59.20;;;;;;5040085;28;20179;-75
2021/12/06 09:28:27;;;;;;;1.80;0.80;;;23.20;59.00;;;;;;5037793;28;20036;-76
2021/12/06 09:30:54;;;;;;;4.90;0.80;;;23.20;58.70;;;;;;5037413;28;20025;-76
2021/12/06 09:33:22;;;;;;;3.97;1.00;;;23.10;58.80;;;;;;5038717;28;20013;-76
2021/12/06 09:35:50;;;;;;;2.97;0.93;;;23.10;58.80;;;;;;5035784;28;20584;-77
2021/12/06 09:38:27;;;;;;;3.10;0.95;;;23.10;58.70;;;;;;5040953;28;20033;-76
2021/12/06 09:40:57;;;;;;;1.17;0.40;;;23.00;58.90;;;;;;5041512;28;20028;-76
2021/12/06 09:43:24;;;;;;;8.80;1.15;;;23.00;58.90;;;;;;5040177;28;20037;-76
2021/12/06 09:45:51;;;;;;;1.75;1.08;;;23.00;58.60;;;;;;5039024;28;20018;-76
2021/12/06 09:48:19;;;;;;;3.28;0.88;;;23.00;58.80;;;;;;5041325;28;20091;-78
2021/12/06 09:50:51;;;;;;;4.57;1.10;;;23.00;58.40;;;;;;5035933;28;20033;-75
2021/12/06 09:53:29;;;;;;;4.35;0.88;;;23.10;58.60;;;;;;5041389;28;20021;-77
2021/12/06 09:55:59;;;;;;;6.43;1.05;;;23.10;58.40;;;;;;5041187;28;20024;-77
2021/12/06 09:58:26;;;;;;;2.65;1.00;;;23.20;58.30;;;;;;5036608;28;20025;-78
2021/12/06 10:01:14;;;;;;;2.65;1.20;;;23.20;58.20;;;;;;5038767;28;20496;-77
2021/12/06 10:03:44;;;;;;;4.03;0.75;;;23.20;58.40;;;;;;5041980;28;20482;-76
2021/12/06 10:06:11;;;;;;;6.95;2.47;;;23.30;58.50;;;;;;5037866;28;20063;-77
2021/12/06 10:08:42;;;;;;;2.28;1.40;;;23.30;58.50;;;;;;5040913;28;20163;-77
2021/12/06 10:11:09;;;;;;;3.08;1.05;;;23.30;57.50;;;;;;5039181;28;20068;-77
2021/12/06 10:13:36;;;;;;;4.85;1.50;;;23.30;57.20;;;;;;5041125;28;20115;-77
2021/12/06 10:16:03;;;;;;;1.65;0.98;;;23.30;57.40;;;;;;5037360;28;20062;-77
2021/12/06 10:18:30;;;;;;;3.63;0.85;;;23.30;57.70;;;;;;5038319;28;20042;-77
2021/12/06 10:20:57;;;;;;;4.78;1.13;;;23.30;57.40;;;;;;5036405;28;20100;-76
2021/12/06 10:23:24;;;;;;;4.88;1.42;;;23.20;57.50;;;;;;5035484;28;20035;-77
2021/12/06 10:25:52;;;;;;;6.03;1.17;;;23.20;58.10;;;;;;5037484;28;20041;-77
2021/12/06 10:28:23;;;;;;;12.48;3.83;;;23.20;57.60;;;;;;5039944;28;20108;-76
2021/12/06 10:30:59;;;;;;;5.25;2.67;;;23.20;57.60;;;;;;5038780;28;20025;-77
2021/12/06 10:33:33;;;;;;;2.22;1.20;;;23.20;57.30;;;;;;5038035;28;20025;-76
2021/12/06 10:36:05;;;;;;;2.83;1.40;;;23.20;57.20;;;;;;5038742;28;20037;-77
2021/12/06 10:38:36;;;;;;;4.43;1.40;;;23.40;56.80;;;;;;5037095;28;20013;-77
2021/12/06 10:41:09;;;;;;;3.75;1.23;;;23.40;56.50;;;;;;5044946;28;20365;-76
2021/12/06 10:46:26;;;;;;;2.58;1.30;;;23.50;56.40;;;;;;5147452;23;20518;-74
2021/12/06 10:48:56;;;;;;;2.28;1.70;;;23.60;56.20;;;;;;5066558;28;20021;-74
2021/12/06 10:51:24;;;;;;;5.15;2.38;;;23.60;55.80;;;;;;5067976;28;20067;-74
2021/12/06 10:54:02;;;;;;;3.30;1.30;;;23.60;55.40;;;;;;5070864;28;20104;-74
2021/12/06 10:56:45;;;;;;;4.43;1.23;;;23.70;55.40;;;;;;5067454;28;20066;-74
2021/12/06 10:59:17;;;;;;;5.90;1.25;;;23.70;55.40;;;;;;5066183;28;20111;-81
2021/12/06 11:01:44;;;;;;;3.42;1.08;;;23.70;55.50;;;;;;5065548;28;20107;-74
2021/12/06 11:04:14;;;;;;;6.60;1.55;;;23.80;55.60;;;;;;5052294;28;20074;-74
2021/12/06 11:06:44;;;;;;;3.13;0.93;;;23.80;55.10;;;;;;5067818;28;20023;-83
2021/12/06 11:09:26;;;;;;;4.15;1.15;;;23.90;55.00;;;;;;5069461;28;20019;-74
2021/12/06 11:11:57;;;;;;;4.78;0.90;;;24.00;55.30;;;;;;5069711;28;20486;-75
2021/12/06 11:14:34;;;;;;;2.85;1.20;;;24.10;55.20;;;;;;5062165;28;20055;-74
2021/12/06 11:17:09;;;;;;;1.95;0.80;;;24.20;54.80;;;;;;5062065;28;20025;-80
2021/12/06 11:19:37;;;;;;;6.47;1.55;;;24.20;54.50;;;;;;5069521;28;20066;-76
2021/12/06 11:22:13;;;;;;;2.65;0.95;;;24.30;54.40;;;;;;5070128;28;20028;-77
2021/12/06 11:24:46;;;;;;;3.45;1.58;;;24.20;54.00;;;;;;5066558;28;20047;-74
2021/12/06 11:27:17;;;;;;;5.40;0.98;;;24.20;54.00;;;;;;5065735;28;20025;-74
2021/12/06 11:30:08;;;;;;;6.93;2.10;;;24.20;54.20;;;;;;5064012;28;20028;-74
2021/12/06 11:32:38;;;;;;;3.55;1.38;;;24.20;54.70;;;;;;5065938;28;20094;-74
2021/12/06 11:35:18;;;;;;;3.72;1.27;;;24.20;55.00;;;;;;5063127;28;20028;-74
2021/12/06 11:37:55;;;;;;;3.70;1.25;;;24.20;54.50;;;;;;5067776;28;20024;-75
2021/12/06 11:40:31;;;;;;;3.47;0.90;;;24.30;54.50;;;;;;5065841;28;20029;-75
2021/12/06 11:43:03;;;;;;;2.10;0.90;;;24.20;54.10;;;;;;5068916;28;20020;-78
2021/12/06 11:45:48;;;;;;;4.80;0.95;;;24.20;53.80;;;;;;5068822;28;20553;-74
2021/12/06 11:48:24;;;;;;;5.35;1.15;;;24.10;54.10;;;;;;5062575;28;20025;-75
2021/12/06 11:51:08;;;;;;;2.70;1.10;;;24.20;54.70;;;;;;5067415;28;20395;-74
2021/12/06 11:53:37;;;;;;;3.83;1.27;;;24.30;55.00;;;;;;5068227;28;20352;-84
2021/12/06 11:56:18;;;;;;;2.83;1.30;;;24.40;54.90;;;;;;5069258;28;20038;-75
2021/12/06 11:59:00;;;;;;;4.28;1.20;;;24.50;54.10;;;;;;5051634;28;20028;-74
2021/12/06 12:01:34;;;;;;;1.77;0.95;;;24.60;53.90;;;;;;5068809;28;20009;-76
2021/12/06 12:04:07;;;;;;;5.80;1.13;;;24.80;53.90;;;;;;5069316;28;20051;-84
2021/12/06 12:06:38;;;;;;;6.93;1.50;;;24.90;53.00;;;;;;5066292;28;20475;-86
2021/12/06 12:09:15;;;;;;;3.10;1.48;;;25.00;53.20;;;;;;5069403;28;20463;-78
2021/12/06 12:12:03;;;;;;;3.72;1.27;;;25.00;53.00;;;;;;5068394;28;20163;-81
2021/12/06 12:14:55;;;;;;;7.82;1.92;;;25.00;52.70;;;;;;5065925;28;20021;-84
2021/12/06 12:17:23;;;;;;;3.55;1.33;;;25.00;52.80;;;;;;5068422;28;20044;-82
2021/12/06 12:19:52;;;;;;;2.80;1.55;;;24.90;53.60;;;;;;5065994;28;20025;-82
2021/12/06 12:22:20;;;;;;;5.28;1.27;;;24.90;52.90;;;;;;5065854;28;20055;-77
2021/12/06 12:24:52;;;;;;;2.67;0.90;;;24.90;53.00;;;;;;5064429;28;20833;-75
2021/12/06 12:29:47;;;;;;;3.80;1.13;;;24.90;52.60;;;;;;5071147;28;20962;-84
2021/12/06 12:32:15;;;;;;;8.07;1.48;;;24.80;52.60;;;;;;5068902;28;20547;-77
2021/12/06 12:34:46;;;;;;;5.18;1.55;;;24.70;52.70;;;;;;5070146;28;20109;-83
2021/12/06 12:37:15;;;;;;;4.10;1.20;;;24.60;53.30;;;;;;5069128;28;20012;-77
2021/12/06 12:39:42;;;;;;;3.15;1.13;;;24.60;53.50;;;;;;5072476;28;20793;-78
2021/12/06 12:42:10;;;;;;;7.45;1.42;;;24.60;53.60;;;;;;5073650;28;20040;-85
2021/12/06 12:44:47;;;;;;;3.78;0.82;;;24.70;53.50;;;;;;5072597;28;20016;-78
2021/12/06 12:47:18;;;;;;;5.75;1.42;;;24.70;53.40;;;;;;5072925;28;20016;-74
2021/12/06 12:49:48;;;;;;;6.20;1.30;;;24.70;53.30;;;;;;5070902;28;20091;-87
2021/12/06 12:52:15;;;;;;;3.38;2.08;;;24.60;52.60;;;;;;5072411;28;20029;-86
2021/12/06 12:54:45;;;;;;;4.22;1.88;;;24.60;52.60;;;;;;5072345;28;20023;-74
2021/12/06 12:57:16;;;;;;;3.35;1.17;;;24.40;52.70;;;;;;5065766;28;20025;-74
2021/12/06 12:59:51;;;;;;;7.03;1.40;;;24.40;53.20;;;;;;5071774;28;20100;-78
2021/12/06 13:02:29;;;;;;;5.75;1.30;;;24.30;53.60;;;;;;5071336;28;20028;-80
2021/12/06 13:04:59;;;;;;;4.50;1.05;;;24.30;53.70;;;;;;5070823;28;20031;-76
2021/12/06 13:07:39;;;;;;;9.65;2.28;;;24.30;53.50;;;;;;5072299;28;20020;-84
2021/12/06 13:10:39;;;;;;;3.67;1.05;;;24.30;53.50;;;;;;5070810;28;20074;-82
2021/12/06 13:13:26;;;;;;;1.88;0.73;;;24.20;53.90;;;;;;5052215;28;20024;-76
2021/12/06 13:16:07;;;;;;;4.70;1.30;;;24.20;53.50;;;;;;5052608;28;20489;-76